createdAt,value
2018-12-10T00:00:46.669Z,94.89
2018-12-10T00:01:46.663Z,95.47
2018-12-10T00:02:46.641Z,94.89
2018-12-10T00:03:46.648Z,95.20
2018-12-10T00:04:46.642Z,95.40
2018-12-10T00:05:46.623Z,95.40
2018-12-10T00:06:46.682Z,95.30
2018-12-10T00:07:46.593Z,94.89
2018-12-10T00:08:46.713Z,95.09
2018-12-10T00:09:46.570Z,95.51
2018-12-10T00:10:46.551Z,94.89
2018-12-10T00:11:46.559Z,95.09
2018-12-10T00:12:46.534Z,95.09
2018-12-10T00:13:46.511Z,95.40
2018-12-10T00:14:46.548Z,95.20
2018-12-10T00:15:46.500Z,94.99
2018-12-10T00:16:46.527Z,94.89
2018-12-10T00:17:46.470Z,95.62
2018-12-10T00:18:46.451Z,95.09
2018-12-10T00:19:46.442Z,95.40
2018-12-10T00:20:46.453Z,94.89
2018-12-10T00:21:46.422Z,94.89
2018-12-10T00:22:46.486Z,95.09
2018-12-10T00:23:46.400Z,94.47
2018-12-10T00:24:46.382Z,93.74
2018-12-10T00:25:46.399Z,93.95
2018-12-10T00:26:46.370Z,94.37
2018-12-10T00:27:46.350Z,93.74
2018-12-10T00:28:46.372Z,92.91
2018-12-10T00:29:46.319Z,93.33
2018-12-10T00:30:46.326Z,93.95
2018-12-10T00:31:46.340Z,93.54
2018-12-10T00:32:46.295Z,93.95
2018-12-10T00:33:46.280Z,93.54
2018-12-10T00:34:46.270Z,93.85
2018-12-10T00:35:46.254Z,94.16
2018-12-10T00:36:46.272Z,93.95
2018-12-10T00:37:46.247Z,94.37
2018-12-10T00:38:46.239Z,93.23
2018-12-10T00:39:46.217Z,93.89
2018-12-10T00:40:46.199Z,94.10
2018-12-10T00:41:46.190Z,93.99
2018-12-10T00:42:46.257Z,93.95
2018-12-10T00:43:46.166Z,93.89
2018-12-10T00:44:46.164Z,93.79
2018-12-10T00:45:46.135Z,94.10
2018-12-10T00:46:46.140Z,92.95
2018-12-10T00:47:46.123Z,93.48
2018-12-10T00:48:46.151Z,93.99
2018-12-10T00:49:46.157Z,93.58
2018-12-10T00:50:46.130Z,93.48
2018-12-10T00:51:46.078Z,93.89
2018-12-10T00:52:46.057Z,94.41
2018-12-10T00:53:46.104Z,93.58
2018-12-10T00:54:46.055Z,94.10
2018-12-10T00:55:46.026Z,93.79
2018-12-10T00:56:46.052Z,94.14
2018-12-10T00:57:46.011Z,94.10
2018-12-10T00:58:45.992Z,93.79
2018-12-10T00:59:46.001Z,94.62
2018-12-10T01:00:45.976Z,94.35
2018-12-10T01:01:46.012Z,94.41
2018-12-10T01:02:45.985Z,93.99
2018-12-10T01:03:45.946Z,93.79
2018-12-10T01:04:45.931Z,93.83
2018-12-10T01:05:45.944Z,93.99
2018-12-10T01:06:45.935Z,93.58
2018-12-10T01:07:45.890Z,93.27
2018-12-10T01:08:45.877Z,93.62
2018-12-10T01:09:45.889Z,93.48
2018-12-10T01:10:46.428Z,93.48
2018-12-10T01:11:45.877Z,93.99
2018-12-10T01:12:45.841Z,92.85
2018-12-10T01:13:45.830Z,93.37
2018-12-10T01:14:45.831Z,93.83
2018-12-10T01:15:45.804Z,93.48
2018-12-10T01:16:45.813Z,93.48
2018-12-10T01:17:45.794Z,93.48
2018-12-10T01:18:45.765Z,92.54
2018-12-10T01:19:45.800Z,92.64
2018-12-10T01:20:45.740Z,92.64
2018-12-10T01:21:45.739Z,92.79
2018-12-10T01:23:06.752Z,92.95
2018-12-10T01:23:45.719Z,93.20
2018-12-10T01:24:45.697Z,93.41
2018-12-10T01:25:45.691Z,92.99
2018-12-10T01:26:45.699Z,93.20
2018-12-10T01:27:45.665Z,92.99
2018-12-10T01:28:45.671Z,92.58
2018-12-10T01:29:45.650Z,92.68
2018-12-10T01:30:45.633Z,93.31
2018-12-10T01:31:45.622Z,92.99
2018-12-10T01:32:45.605Z,93.52
2018-12-10T01:33:45.594Z,93.52
2018-12-10T01:34:45.624Z,93.41
2018-12-10T01:35:45.571Z,92.79
2018-12-10T01:36:45.567Z,92.58
2018-12-10T01:38:57.372Z,92.27
2018-12-10T01:39:57.298Z,92.16
2018-12-10T01:40:57.228Z,92.21
2018-12-10T01:41:57.295Z,92.21
2018-12-10T01:42:57.175Z,92.68
2018-12-10T01:43:57.129Z,92.89
2018-12-10T01:44:57.154Z,92.27
2018-12-10T01:45:57.143Z,93.04
2018-12-10T01:46:57.104Z,93.35
2018-12-10T01:47:57.118Z,93.24
2018-12-10T01:48:57.079Z,93.04
2018-12-10T01:49:57.061Z,93.77
2018-12-10T01:50:57.055Z,93.46
2018-12-10T01:51:57.079Z,93.14
2018-12-10T01:52:57.113Z,92.31
2018-12-10T01:53:57.018Z,92.31
2018-12-10T01:54:56.999Z,92.52
2018-12-10T01:55:57.000Z,92.62
2018-12-10T01:56:57.020Z,92.62
2018-12-10T01:57:56.981Z,92.72
2018-12-10T01:58:56.964Z,92.83
2018-12-10T01:59:56.967Z,92.00
2018-12-10T02:00:56.946Z,92.72
2018-12-10T02:01:56.934Z,93.46
2018-12-10T02:02:56.937Z,93.56
2018-12-10T02:03:56.900Z,93.56
2018-12-10T02:04:56.896Z,93.56
2018-12-10T02:05:57.502Z,93.77
2018-12-10T02:06:56.904Z,93.56
2018-12-10T02:07:56.875Z,93.77
2018-12-10T02:08:56.861Z,93.77
2018-12-10T02:10:07.590Z,93.56
2018-12-10T02:10:57.006Z,93.77
2018-12-10T02:11:56.931Z,93.56
2018-12-10T02:12:56.876Z,93.56
2018-12-10T02:13:56.938Z,93.56
2018-12-10T02:14:56.795Z,93.46
2018-12-10T02:15:56.779Z,93.46
2018-12-10T02:16:56.811Z,93.56
2018-12-10T02:17:56.743Z,93.56
2018-12-10T02:18:56.743Z,93.87
2018-12-10T02:19:56.737Z,93.14
2018-12-10T02:20:56.707Z,93.46
2018-12-10T02:21:56.700Z,93.56
2018-12-10T02:22:56.716Z,93.56
2018-12-10T02:23:56.688Z,93.04
2018-12-10T02:25:06.563Z,93.24
2018-12-10T02:25:56.773Z,93.98
2018-12-10T02:26:56.723Z,93.66
2018-12-10T02:27:56.715Z,93.98
2018-12-10T02:28:56.773Z,93.46
2018-12-10T02:29:56.631Z,92.62
2018-12-10T02:30:56.612Z,92.52
2018-12-10T02:31:56.600Z,92.31
2018-12-10T02:32:56.575Z,92.72
2018-12-10T02:33:56.607Z,92.72
2018-12-10T02:34:56.553Z,92.10
2018-12-10T02:35:56.542Z,92.21
2018-12-10T02:36:56.536Z,92.52
2018-12-10T02:37:56.569Z,91.78
2018-12-10T02:38:57.660Z,92.31
2018-12-10T02:39:56.509Z,92.21
2018-12-10T02:40:56.491Z,92.41
2018-12-10T02:41:56.487Z,92.21
2018-12-10T02:42:56.466Z,92.41
2018-12-10T02:43:56.469Z,92.62
2018-12-10T02:44:56.484Z,91.78
2018-12-10T02:45:56.427Z,92.31
2018-12-10T02:46:56.489Z,92.62
2018-12-10T02:47:56.417Z,92.41
2018-12-10T02:48:56.417Z,92.00
2018-12-10T02:49:57.405Z,92.00
2018-12-10T02:50:56.377Z,92.41
2018-12-10T02:51:56.362Z,92.31
2018-12-10T02:52:56.395Z,91.78
2018-12-10T02:53:56.350Z,92.00
2018-12-10T02:54:56.352Z,92.62
2018-12-10T02:55:56.330Z,92.62
2018-12-10T02:56:56.313Z,92.52
2018-12-10T02:57:56.321Z,92.41
2018-12-10T02:58:56.332Z,92.41
2018-12-10T02:59:56.278Z,92.41
2018-12-10T03:00:56.297Z,92.72
2018-12-10T03:01:56.252Z,92.10
2018-12-10T03:02:56.271Z,92.41
2018-12-10T03:03:56.223Z,92.10
2018-12-10T03:04:56.219Z,92.52
2018-12-10T03:05:56.201Z,92.41
2018-12-10T03:06:56.228Z,92.10
2018-12-10T03:07:56.210Z,92.21
2018-12-10T03:08:56.177Z,92.10
2018-12-10T03:09:56.164Z,91.83
2018-12-10T03:10:56.164Z,92.31
2018-12-10T03:11:56.148Z,92.62
2018-12-10T03:12:56.140Z,92.62
2018-12-10T03:13:56.142Z,92.00
2018-12-10T03:14:56.107Z,91.78
2018-12-10T03:15:56.102Z,92.41
2018-12-10T03:16:56.086Z,92.10
2018-12-10T03:17:56.091Z,91.89
2018-12-10T03:18:56.059Z,92.41
2018-12-10T03:19:56.082Z,92.52
2018-12-10T03:20:56.047Z,92.21
2018-12-10T03:21:56.028Z,92.52
2018-12-10T03:22:56.019Z,92.52
2018-12-10T03:23:56.349Z,92.72
2018-12-10T03:24:56.623Z,93.46
2018-12-10T03:25:55.993Z,93.04
2018-12-10T03:26:55.990Z,93.08
2018-12-10T03:27:55.993Z,93.08
2018-12-10T03:28:55.953Z,92.77
2018-12-10T03:29:55.970Z,92.52
2018-12-10T03:30:55.974Z,92.25
2018-12-10T03:31:55.947Z,92.31
2018-12-10T03:32:55.925Z,92.62
2018-12-10T03:33:55.903Z,92.62
2018-12-10T03:34:55.922Z,92.31
2018-12-10T03:35:55.895Z,92.21
2018-12-10T03:36:55.876Z,92.31
2018-12-10T03:37:55.893Z,92.10
2018-12-10T03:38:55.834Z,92.41
2018-12-10T03:39:55.838Z,92.00
2018-12-10T03:40:55.846Z,92.31
2018-12-10T03:41:55.834Z,92.72
2018-12-10T03:42:55.839Z,92.72
2018-12-10T03:43:56.794Z,92.83
2018-12-10T03:44:55.814Z,92.77
2018-12-10T03:45:55.755Z,92.10
2018-12-10T03:46:55.848Z,92.52
2018-12-10T03:47:55.745Z,92.66
2018-12-10T03:48:55.749Z,92.10
2018-12-10T03:49:55.744Z,91.68
2018-12-10T03:51:07.259Z,92.62
2018-12-10T03:51:56.788Z,92.31
2018-12-10T03:52:55.785Z,92.66
2018-12-10T03:53:55.848Z,92.83
2018-12-10T03:54:55.723Z,92.35
2018-12-10T03:55:55.651Z,92.31
2018-12-10T03:57:07.202Z,92.62
2018-12-10T03:59:08.436Z,92.46
2018-12-10T04:00:08.514Z,92.35
2018-12-10T04:01:08.392Z,92.66
2018-12-10T04:02:08.313Z,92.66
2018-12-10T04:03:08.364Z,92.77
2018-12-10T04:04:08.252Z,92.41
2018-12-10T04:05:08.236Z,92.77
2018-12-10T04:06:08.193Z,92.66
2018-12-10T04:07:08.169Z,93.29
2018-12-10T04:08:08.193Z,93.04
2018-12-10T04:09:08.142Z,92.77
2018-12-10T04:10:08.229Z,92.31
2018-12-10T04:11:08.141Z,92.72
2018-12-10T04:12:08.111Z,92.62
2018-12-10T04:13:08.110Z,92.62
2018-12-10T04:14:08.086Z,92.31
2018-12-10T04:15:08.092Z,92.62
2018-12-10T04:16:08.096Z,92.52
2018-12-10T04:17:08.061Z,92.52
2018-12-10T04:18:08.056Z,92.31
2018-12-10T04:19:08.027Z,92.52
2018-12-10T04:20:08.018Z,92.31
2018-12-10T04:21:08.031Z,92.14
2018-12-10T04:22:08.009Z,92.52
2018-12-10T04:23:09.089Z,92.31
2018-12-10T04:24:22.876Z,92.93
2018-12-10T04:25:08.173Z,93.35
2018-12-10T04:26:08.017Z,92.87
2018-12-10T04:27:08.027Z,93.77
2018-12-10T04:28:08.646Z,93.50
2018-12-10T04:29:07.975Z,93.77
2018-12-10T04:30:07.919Z,93.46
2018-12-10T04:31:07.904Z,93.04
2018-12-10T04:32:07.894Z,93.81
2018-12-10T04:33:07.898Z,93.50
2018-12-10T04:34:07.857Z,93.81
2018-12-10T04:35:07.868Z,93.81
2018-12-10T04:36:07.836Z,94.08
2018-12-10T04:37:07.822Z,94.54
2018-12-10T04:38:07.861Z,93.60
2018-12-10T04:39:17.540Z,94.02
2018-12-10T04:40:07.874Z,94.02
2018-12-10T04:41:07.870Z,93.98
2018-12-10T04:42:07.812Z,93.98
2018-12-10T04:43:07.886Z,94.02
2018-12-10T04:44:07.790Z,94.12
2018-12-10T04:45:17.511Z,94.12
2018-12-10T04:46:07.785Z,93.81
2018-12-10T04:47:07.752Z,94.02
2018-12-10T04:48:07.753Z,93.81
2018-12-10T04:49:07.813Z,94.23
2018-12-10T04:50:19.882Z,94.23
2018-12-10T04:51:17.778Z,94.33
2018-12-10T04:53:19.781Z,94.12
2018-12-10T04:54:19.816Z,94.23
2018-12-10T04:55:19.753Z,93.81
2018-12-10T04:56:19.866Z,94.23
2018-12-10T04:57:29.609Z,94.02
2018-12-10T04:58:19.698Z,94.43
2018-12-10T04:59:19.743Z,94.12
2018-12-10T05:00:20.639Z,94.33
2018-12-10T05:01:20.651Z,93.98
2018-12-10T05:02:29.119Z,94.23
2018-12-10T05:03:19.721Z,94.23
2018-12-10T05:04:19.668Z,94.64
2018-12-10T05:05:19.636Z,94.02
2018-12-10T05:06:29.167Z,94.12
2018-12-10T05:07:19.648Z,94.12
2018-12-10T05:08:19.675Z,94.23
2018-12-10T05:09:19.578Z,94.02
2018-12-10T05:10:19.635Z,94.23
2018-12-10T05:11:19.548Z,93.40
2018-12-10T05:12:19.542Z,93.08
2018-12-10T05:13:29.047Z,92.77
2018-12-10T05:15:31.695Z,92.52
2018-12-10T05:16:31.685Z,92.31
2018-12-10T05:17:31.665Z,92.10
2018-12-10T05:18:31.668Z,92.31
2018-12-10T05:19:31.527Z,92.35
2018-12-10T05:20:31.508Z,92.31
2018-12-10T05:21:31.522Z,92.56
2018-12-10T05:23:00.527Z,92.66
2018-12-10T05:23:31.486Z,92.87
2018-12-10T05:24:31.454Z,93.08
2018-12-10T05:25:31.507Z,94.02
2018-12-10T05:26:31.465Z,93.18
2018-12-10T05:27:31.493Z,93.29
2018-12-10T05:28:31.418Z,92.25
2018-12-10T05:29:41.020Z,92.14
2018-12-10T05:30:31.529Z,93.40
2018-12-10T05:31:31.484Z,93.29
2018-12-10T05:32:31.435Z,93.40
2018-12-10T05:33:31.542Z,93.29
2018-12-10T05:34:31.370Z,93.50
2018-12-10T05:35:31.389Z,92.77
2018-12-10T05:36:31.322Z,92.97
2018-12-10T05:37:31.357Z,92.66
2018-12-10T05:38:31.310Z,92.66
2018-12-10T05:39:31.311Z,92.21
2018-12-10T05:40:31.272Z,92.25
2018-12-10T05:41:31.298Z,92.10
2018-12-10T05:42:31.255Z,92.14
2018-12-10T05:43:31.253Z,91.72
2018-12-10T05:44:31.245Z,92.14
2018-12-10T05:45:31.280Z,92.10
2018-12-10T05:46:31.241Z,91.62
2018-12-10T05:47:31.205Z,91.72
2018-12-10T05:48:31.186Z,91.52
2018-12-10T05:49:31.176Z,92.03
2018-12-10T05:50:31.164Z,92.25
2018-12-10T05:51:39.843Z,91.41
2018-12-10T05:52:31.290Z,92.25
2018-12-10T05:53:31.212Z,91.93
2018-12-10T05:54:31.190Z,92.25
2018-12-10T05:55:31.321Z,92.14
2018-12-10T05:56:31.153Z,92.35
2018-12-10T05:57:31.090Z,92.14
2018-12-10T05:58:31.081Z,92.46
2018-12-10T05:59:31.082Z,92.25
2018-12-10T06:00:31.056Z,92.46
2018-12-10T06:01:31.053Z,92.14
2018-12-10T06:02:31.082Z,92.46
2018-12-10T06:03:31.024Z,92.25
2018-12-10T06:04:31.013Z,92.14
2018-12-10T06:05:42.088Z,92.46
2018-12-10T06:06:31.099Z,92.14
2018-12-10T06:07:41.873Z,91.62
2018-12-10T06:08:31.038Z,92.35
2018-12-10T06:09:31.081Z,92.25
2018-12-10T06:10:30.971Z,91.72
2018-12-10T06:11:30.930Z,92.35
2018-12-10T06:12:30.942Z,92.35
2018-12-10T06:13:30.947Z,92.25
2018-12-10T06:14:30.905Z,91.72
2018-12-10T06:15:30.954Z,91.72
2018-12-10T06:16:30.927Z,92.31
2018-12-10T06:17:30.884Z,91.72
2018-12-10T06:18:30.894Z,91.31
2018-12-10T06:19:30.870Z,91.83
2018-12-10T06:20:30.834Z,91.31
2018-12-10T06:21:30.822Z,91.52
2018-12-10T06:22:45.560Z,91.62
2018-12-10T06:23:40.352Z,91.62
2018-12-10T06:24:30.825Z,91.47
2018-12-10T06:25:30.938Z,91.72
2018-12-10T06:26:30.818Z,91.83
2018-12-10T06:27:42.687Z,91.77
2018-12-10T06:28:30.825Z,91.72
2018-12-10T06:29:30.769Z,91.72
2018-12-10T06:30:40.534Z,91.72
2018-12-10T06:31:30.807Z,91.72
2018-12-10T06:32:30.748Z,91.72
2018-12-10T06:33:30.759Z,92.25
2018-12-10T06:34:30.732Z,91.72
2018-12-10T06:35:30.682Z,91.52
2018-12-10T06:36:30.682Z,91.72
2018-12-10T06:37:37.532Z,91.52
2018-12-10T06:39:43.473Z,92.50
2018-12-10T06:40:43.389Z,92.25
2018-12-10T06:41:43.375Z,92.14
2018-12-10T06:42:43.351Z,91.72
2018-12-10T06:43:43.321Z,91.62
2018-12-10T06:44:43.387Z,91.83
2018-12-10T06:45:43.267Z,91.72
2018-12-10T06:46:43.235Z,91.62
2018-12-10T06:47:43.266Z,91.72
2018-12-10T06:48:43.215Z,91.20
2018-12-10T06:49:43.207Z,91.72
2018-12-10T06:50:51.857Z,91.62
2018-12-10T06:51:43.277Z,91.62
2018-12-10T06:52:53.935Z,91.41
2018-12-10T06:53:43.210Z,91.62
2018-12-10T06:54:43.203Z,91.52
2018-12-10T06:55:43.208Z,90.85
2018-12-10T06:56:43.163Z,90.58
2018-12-10T06:57:43.265Z,91.00
2018-12-10T06:58:43.130Z,91.00
2018-12-10T06:59:43.123Z,91.25
2018-12-10T07:00:43.074Z,90.58
2018-12-10T07:01:43.069Z,91.25
2018-12-10T07:02:43.106Z,90.58
2018-12-10T07:03:43.050Z,90.47
2018-12-10T07:04:43.057Z,90.06
2018-12-10T07:05:43.023Z,90.16
2018-12-10T07:06:43.011Z,90.89
2018-12-10T07:07:43.034Z,90.89
2018-12-10T07:08:42.995Z,90.89
2018-12-10T07:09:43.007Z,90.37
2018-12-10T07:10:42.968Z,90.72
2018-12-10T07:11:42.960Z,90.58
2018-12-10T07:12:52.998Z,91.00
2018-12-10T07:13:42.969Z,90.47
2018-12-10T07:14:42.990Z,90.89
2018-12-10T07:15:43.015Z,90.89
2018-12-10T07:16:42.979Z,90.72
2018-12-10T07:17:52.393Z,90.58
2018-12-10T07:18:42.969Z,91.00
2018-12-10T07:19:52.407Z,90.58
2018-12-10T07:20:42.914Z,90.58
2018-12-10T07:21:42.979Z,90.58
2018-12-10T07:22:42.907Z,90.37
2018-12-10T07:23:42.981Z,90.89
2018-12-10T07:24:42.838Z,91.00
2018-12-10T07:25:42.807Z,90.79
2018-12-10T07:26:51.511Z,90.89
2018-12-10T07:28:54.180Z,90.79
2018-12-10T07:30:03.835Z,90.89
2018-12-10T07:30:54.076Z,89.75
2018-12-10T07:31:54.047Z,89.95
2018-12-10T07:32:54.048Z,90.06
2018-12-10T07:33:54.065Z,90.16
2018-12-10T07:35:06.365Z,89.12
2018-12-10T07:36:04.652Z,89.32
2018-12-10T07:36:54.009Z,88.81
2018-12-10T07:37:54.094Z,89.26
2018-12-10T07:38:53.991Z,89.68
2018-12-10T07:39:54.025Z,89.89
2018-12-10T07:40:53.894Z,89.54
2018-12-10T07:41:53.871Z,89.85
2018-12-10T07:42:53.880Z,89.64
2018-12-10T07:43:53.867Z,89.64
2018-12-10T07:45:03.333Z,90.06
2018-12-10T07:45:53.886Z,90.68
2018-12-10T07:46:53.821Z,90.72
2018-12-10T07:47:53.863Z,90.20
2018-12-10T07:49:05.371Z,89.54
2018-12-10T07:50:02.497Z,89.85
2018-12-10T07:50:53.856Z,89.95
2018-12-10T07:51:53.834Z,90.37
2018-12-10T07:52:53.830Z,90.89
2018-12-10T07:53:53.795Z,91.00
2018-12-10T07:54:53.890Z,91.14
2018-12-10T07:55:53.734Z,89.89
2018-12-10T07:56:53.703Z,91.00
2018-12-10T07:57:53.713Z,90.47
2018-12-10T07:58:53.681Z,90.10
2018-12-10T07:59:53.672Z,90.89
2018-12-10T08:00:53.709Z,90.68
2018-12-10T08:01:53.651Z,90.89
2018-12-10T08:02:53.635Z,90.68
2018-12-10T08:03:53.634Z,89.95
2018-12-10T08:04:53.613Z,89.78
2018-12-10T08:05:53.634Z,89.85
2018-12-10T08:07:03.593Z,89.85
2018-12-10T08:09:04.991Z,89.64
2018-12-10T08:10:04.963Z,89.75
2018-12-10T08:11:04.908Z,89.12
2018-12-10T08:12:04.901Z,88.81
2018-12-10T08:13:04.926Z,87.55
2018-12-10T08:14:15.795Z,87.35
2018-12-10T08:15:04.846Z,88.08
2018-12-10T08:16:04.814Z,88.08
2018-12-10T08:17:04.871Z,87.97
2018-12-10T08:18:04.786Z,88.29
2018-12-10T08:19:15.484Z,87.87
2018-12-10T08:20:04.840Z,88.60
2018-12-10T08:21:04.756Z,88.85
2018-12-10T08:22:04.743Z,88.91
2018-12-10T08:23:04.911Z,89.12
2018-12-10T08:24:04.747Z,88.85
2018-12-10T08:25:04.665Z,88.85
2018-12-10T08:26:13.301Z,89.32
2018-12-10T08:27:09.383Z,89.68
2018-12-10T08:29:16.007Z,89.32
2018-12-10T08:30:16.008Z,89.22
2018-12-10T08:31:15.938Z,89.43
2018-12-10T08:32:25.381Z,89.43
2018-12-10T08:33:15.930Z,89.01
2018-12-10T08:34:24.508Z,89.32
2018-12-10T08:36:09.563Z,89.22
2018-12-10T08:37:18.131Z,89.68
2018-12-10T08:41:54.945Z,89.06
2018-12-10T08:42:53.892Z,89.37
2018-12-10T08:44:13.175Z,89.54
2018-12-10T08:46:05.996Z,89.01
2018-12-10T08:48:18.326Z,88.91
2018-12-10T08:50:30.300Z,88.91
2018-12-10T08:51:31.157Z,88.70
2018-12-10T08:52:30.116Z,89.01
2018-12-10T08:53:30.100Z,88.70
2018-12-10T08:54:56.049Z,88.91
2018-12-10T08:55:30.104Z,89.32
2018-12-10T08:56:30.140Z,89.12
2018-12-10T08:57:30.124Z,89.43
2018-12-10T08:58:30.092Z,89.12
2018-12-10T09:00:42.282Z,89.47
2018-12-10T09:01:42.165Z,90.83
2018-12-10T09:02:42.153Z,90.93
2018-12-10T09:03:42.136Z,90.72
2018-12-10T09:04:42.173Z,91.81
2018-12-10T09:05:42.115Z,91.77
2018-12-10T09:06:42.179Z,91.46
2018-12-10T09:07:57.043Z,92.75
2018-12-10T09:08:42.032Z,92.18
2018-12-10T09:09:51.538Z,92.29
2018-12-10T09:10:42.048Z,92.22
2018-12-10T09:11:42.001Z,92.75
2018-12-10T09:12:46.969Z,93.06
2018-12-10T09:14:53.387Z,94.00
2018-12-10T09:17:10.523Z,94.10
2018-12-10T09:18:10.492Z,94.00
2018-12-10T09:19:20.182Z,94.73
2018-12-10T09:20:24.781Z,94.15
2018-12-10T09:21:20.743Z,94.25
2018-12-10T09:22:10.402Z,94.31
2018-12-10T09:23:10.356Z,94.10
2018-12-10T09:24:10.324Z,94.42
2018-12-10T09:25:10.408Z,94.31
2018-12-10T09:26:10.373Z,94.10
2018-12-10T09:27:10.418Z,94.00
2018-12-10T09:28:10.257Z,94.21
2018-12-10T09:29:10.284Z,94.10
2018-12-10T09:30:10.234Z,93.79
2018-12-10T09:31:10.264Z,94.73
2018-12-10T09:32:10.241Z,94.10
2018-12-10T09:33:10.196Z,93.16
2018-12-10T09:34:10.188Z,93.69
2018-12-10T09:35:10.180Z,94.10
2018-12-10T09:36:10.158Z,94.21
2018-12-10T09:37:10.186Z,93.69
2018-12-10T09:38:10.232Z,93.59
2018-12-10T09:39:10.139Z,93.16
2018-12-10T09:40:21.554Z,93.06
2018-12-10T09:41:20.007Z,92.33
2018-12-10T09:42:10.179Z,92.85
2018-12-10T09:43:23.195Z,92.44
2018-12-10T09:44:20.528Z,92.54
2018-12-10T09:45:10.145Z,92.85
2018-12-10T09:46:10.110Z,92.65
2018-12-10T09:47:10.079Z,93.23
2018-12-10T09:48:10.104Z,92.33
2018-12-10T09:49:10.151Z,92.65
2018-12-10T09:50:10.035Z,92.50
2018-12-10T09:51:09.999Z,91.56
2018-12-10T09:52:10.019Z,91.91
2018-12-10T09:53:09.975Z,91.35
2018-12-10T09:54:09.986Z,91.08
2018-12-10T09:55:09.971Z,90.31
2018-12-10T09:56:09.946Z,90.93
2018-12-10T09:57:09.937Z,90.62
2018-12-10T09:58:09.922Z,90.93
2018-12-10T09:59:09.911Z,90.97
2018-12-10T10:00:09.906Z,90.41
2018-12-10T10:01:09.907Z,91.14
2018-12-10T10:02:12.438Z,91.87
2018-12-10T10:03:09.867Z,90.93
2018-12-10T10:04:09.855Z,90.93
2018-12-10T10:05:09.858Z,91.14
2018-12-10T10:06:09.829Z,90.93
2018-12-10T10:07:09.839Z,90.68
2018-12-10T10:08:09.812Z,90.52
2018-12-10T10:09:09.802Z,90.62
2018-12-10T10:10:09.818Z,91.77
2018-12-10T10:11:09.784Z,90.47
2018-12-10T10:12:09.770Z,90.68
2018-12-10T10:13:09.771Z,90.58
2018-12-10T10:14:09.747Z,90.16
2018-12-10T10:15:09.736Z,90.68
2018-12-10T10:16:09.755Z,90.79
2018-12-10T10:17:09.712Z,90.06
2018-12-10T10:18:09.701Z,90.68
2018-12-10T10:19:09.714Z,89.95
2018-12-10T10:20:09.687Z,89.64
2018-12-10T10:21:11.448Z,89.75
2018-12-10T10:22:09.744Z,89.85
2018-12-10T10:23:09.721Z,89.75
2018-12-10T10:24:09.640Z,89.75
2018-12-10T10:25:09.648Z,89.75
2018-12-10T10:26:09.619Z,89.12
2018-12-10T10:27:09.634Z,89.01
2018-12-10T10:28:09.595Z,89.47
2018-12-10T10:29:09.583Z,89.85
2018-12-10T10:30:09.572Z,88.75
2018-12-10T10:31:09.566Z,89.01
2018-12-10T10:32:09.580Z,89.16
2018-12-10T10:33:09.567Z,89.22
2018-12-10T10:34:09.529Z,89.01
2018-12-10T10:35:09.516Z,89.12
2018-12-10T10:36:09.504Z,88.91
2018-12-10T10:37:09.494Z,89.01
2018-12-10T10:38:09.502Z,89.64
2018-12-10T10:39:09.486Z,89.43
2018-12-10T10:40:09.465Z,88.70
2018-12-10T10:41:09.459Z,89.01
2018-12-10T10:42:09.452Z,88.81
2018-12-10T10:43:22.483Z,88.91
2018-12-10T10:44:09.506Z,88.70
2018-12-10T10:45:09.441Z,89.01
2018-12-10T10:46:21.349Z,88.39
2018-12-10T10:47:19.938Z,87.83
2018-12-10T10:48:19.122Z,87.87
2018-12-10T10:49:09.459Z,88.76
2018-12-10T10:50:09.403Z,88.91
2018-12-10T10:51:09.394Z,88.60
2018-12-10T10:52:09.475Z,89.01
2018-12-10T10:53:09.371Z,88.81
2018-12-10T10:54:09.310Z,89.32
2018-12-10T10:55:09.395Z,89.08
2018-12-10T10:56:09.302Z,88.91
2018-12-10T10:57:09.279Z,87.97
2018-12-10T10:58:09.285Z,88.49
2018-12-10T10:59:09.259Z,88.81
2018-12-10T11:00:09.246Z,88.60
2018-12-10T11:01:09.278Z,88.49
2018-12-10T11:02:09.220Z,88.81
2018-12-10T11:03:09.211Z,87.87
2018-12-10T11:04:10.579Z,88.29
2018-12-10T11:05:09.194Z,88.64
2018-12-10T11:06:09.203Z,89.06
2018-12-10T11:07:09.195Z,89.54
2018-12-10T11:08:09.152Z,89.64
2018-12-10T11:09:15.339Z,89.06
2018-12-10T11:10:10.142Z,89.12
2018-12-10T11:11:09.116Z,89.22
2018-12-10T11:12:09.162Z,88.91
2018-12-10T11:13:09.096Z,88.81
2018-12-10T11:14:17.774Z,88.91
2018-12-10T11:15:09.156Z,88.60
2018-12-10T11:16:09.070Z,89.01
2018-12-10T11:17:09.164Z,89.01
2018-12-10T11:18:09.132Z,88.29
2018-12-10T11:19:09.148Z,87.24
2018-12-10T11:20:09.034Z,87.66
2018-12-10T11:21:09.016Z,87.76
2018-12-10T11:22:09.013Z,88.08
2018-12-10T11:23:30.042Z,87.87
2018-12-10T11:24:08.974Z,87.55
2018-12-10T11:25:08.980Z,87.97
2018-12-10T11:26:08.942Z,87.41
2018-12-10T11:27:08.933Z,87.35
2018-12-10T11:28:08.934Z,86.89
2018-12-10T11:29:08.919Z,87.20
2018-12-10T11:30:08.924Z,86.37
2018-12-10T11:31:09.587Z,86.99
2018-12-10T11:32:08.882Z,85.53
2018-12-10T11:33:08.870Z,86.16
2018-12-10T11:34:08.886Z,86.68
2018-12-10T11:35:08.848Z,86.79
2018-12-10T11:36:08.852Z,87.52
2018-12-10T11:37:08.821Z,86.06
2018-12-10T11:38:08.823Z,85.64
2018-12-10T11:39:08.799Z,85.64
2018-12-10T11:40:08.822Z,85.43
2018-12-10T11:41:08.779Z,85.64
2018-12-10T11:42:08.787Z,85.53
2018-12-10T11:43:08.755Z,84.81
2018-12-10T11:44:08.746Z,85.96
2018-12-10T11:45:08.736Z,85.43
2018-12-10T11:46:08.749Z,85.02
2018-12-10T11:47:13.032Z,85.96
2018-12-10T11:48:08.715Z,85.64
2018-12-10T11:49:08.687Z,85.64
2018-12-10T11:50:08.689Z,85.33
2018-12-10T11:51:08.667Z,85.33
2018-12-10T11:52:08.688Z,85.33
2018-12-10T11:53:10.653Z,85.64
2018-12-10T11:54:08.646Z,85.64
2018-12-10T11:55:08.644Z,85.12
2018-12-10T11:56:08.615Z,86.06
2018-12-10T11:57:08.599Z,85.02
2018-12-10T11:58:08.629Z,85.53
2018-12-10T11:59:08.575Z,85.33
2018-12-10T12:00:08.584Z,84.81
2018-12-10T12:01:08.556Z,85.12
2018-12-10T12:02:08.548Z,85.53
2018-12-10T12:03:08.536Z,85.33
2018-12-10T12:04:08.529Z,84.91
2018-12-10T12:05:08.510Z,84.28
2018-12-10T12:06:08.509Z,85.43
2018-12-10T12:07:08.532Z,84.50
2018-12-10T12:08:08.481Z,85.68
2018-12-10T12:09:08.488Z,85.78
2018-12-10T12:10:08.453Z,85.58
2018-12-10T12:11:08.442Z,85.58
2018-12-10T12:12:08.450Z,85.53
2018-12-10T12:13:08.423Z,85.68
2018-12-10T12:14:08.405Z,85.74
2018-12-10T12:15:08.422Z,85.33
2018-12-10T12:16:08.388Z,85.22
2018-12-10T12:17:08.372Z,85.96
2018-12-10T12:18:08.381Z,84.91
2018-12-10T12:19:11.509Z,85.53
2018-12-10T12:20:08.341Z,85.53
2018-12-10T12:21:08.343Z,85.53
2018-12-10T12:22:08.314Z,85.33
2018-12-10T12:23:08.309Z,85.43
2018-12-10T12:24:08.318Z,85.96
2018-12-10T12:25:08.282Z,85.33
2018-12-10T12:26:08.304Z,84.43
2018-12-10T12:27:08.268Z,85.02
2018-12-10T12:28:08.257Z,84.60
2018-12-10T12:29:08.244Z,84.08
2018-12-10T12:30:08.246Z,84.91
2018-12-10T12:31:08.221Z,84.28
2018-12-10T12:32:08.242Z,84.70
2018-12-10T12:33:08.197Z,84.60
2018-12-10T12:34:08.184Z,84.08
2018-12-10T12:35:08.173Z,84.60
2018-12-10T12:36:08.186Z,84.50
2018-12-10T12:37:08.153Z,84.28
2018-12-10T12:38:08.163Z,84.18
2018-12-10T12:39:08.133Z,83.56
2018-12-10T12:40:08.122Z,83.45
2018-12-10T12:41:08.112Z,83.66
2018-12-10T12:42:08.119Z,83.56
2018-12-10T12:43:15.758Z,82.41
2018-12-10T12:44:09.074Z,82.82
2018-12-10T12:45:08.064Z,82.72
2018-12-10T12:46:08.053Z,82.31
2018-12-10T12:47:08.046Z,82.82
2018-12-10T12:48:08.053Z,83.18
2018-12-10T12:49:08.050Z,83.04
2018-12-10T12:50:08.011Z,83.66
2018-12-10T12:51:07.998Z,83.56
2018-12-10T12:52:07.991Z,82.82
2018-12-10T12:53:07.978Z,84.39
2018-12-10T12:54:07.980Z,82.93
2018-12-10T12:55:07.997Z,82.93
2018-12-10T12:56:07.946Z,82.93
2018-12-10T12:57:07.933Z,82.20
2018-12-10T12:58:07.932Z,82.82
2018-12-10T12:59:07.915Z,83.04
2018-12-10T13:00:07.923Z,81.79
2018-12-10T13:01:07.914Z,82.51
2018-12-10T13:02:07.885Z,82.72
2018-12-10T13:03:07.872Z,81.65
2018-12-10T13:04:07.857Z,82.20
2018-12-10T13:05:07.856Z,82.41
2018-12-10T13:06:07.854Z,82.41
2018-12-10T13:07:07.873Z,81.79
2018-12-10T13:08:18.800Z,82.51
2018-12-10T13:09:07.912Z,82.72
2018-12-10T13:10:07.833Z,82.14
2018-12-10T13:11:07.845Z,82.97
2018-12-10T13:12:07.874Z,83.18
2018-12-10T13:13:07.818Z,82.97
2018-12-10T13:14:07.770Z,82.24